ARG1677 SAZS-SABE
Flight info
| Callsign | ARG1677 |
|---|---|
| Flight time | 1h 48m |
| Altitude | 39000 |
| Route | LIMAY2C LIMAY UW26 EGUNO UZ109 ISMIL UT655 ASADA ASADA9R |
| Aircraft | B738/M-SDE2E3FGHIRWXY/LB1 |
Departure
| Time | 2026-05-03 21:01 |
|---|---|
| Airport | Teniente Luis Candelaria International Airport (SAZS) |
Arrival
| Time | 2026-05-03 22:49 |
|---|---|
| Airport | Aeroparque Jorge Newbery (SABE) |
| Time | Latitude | Longitude | Altitude | Speed | Heading |
|---|---|---|---|---|---|
| 2026-05-03 20:32 | -41.14645 | -71.16209 | 2784 ft | 0 kts | 25° |
| 2026-05-03 20:44 | -41.14647 | -71.16210 | 2784 ft | 0 kts | 24° |
| 2026-05-03 20:44 | -41.14658 | -71.16211 | 2784 ft | 2 kts | 16° |
| 2026-05-03 20:44 | -41.14672 | -71.16220 | 2784 ft | 2 kts | 27° |
| 2026-05-03 20:45 | -41.14685 | -71.16228 | 2784 ft | 2 kts | 24° |
| 2026-05-03 20:45 | -41.14699 | -71.16236 | 2784 ft | 2 kts | 6° |
| 2026-05-03 20:45 | -41.14714 | -71.16234 | 2784 ft | 2 kts | 349° |
| 2026-05-03 20:45 | -41.14729 | -71.16232 | 2784 ft | 2 kts | 355° |
| 2026-05-03 20:46 | -41.14744 | -71.16233 | 2784 ft | 2 kts | 28° |
| 2026-05-03 20:46 | -41.14756 | -71.16246 | 2784 ft | 2 kts | 50° |
| 2026-05-03 20:46 | -41.14764 | -71.16263 | 2784 ft | 2 kts | 72° |
| 2026-05-03 20:46 | -41.14766 | -71.16283 | 2784 ft | 2 kts | 95° |
| 2026-05-03 20:47 | -41.14764 | -71.16297 | 2784 ft | 0 kts | 112° |
| 2026-05-03 20:47 | -41.14765 | -71.16294 | 2784 ft | 3 kts | 111° |
| 2026-05-03 20:47 | -41.14785 | -71.16250 | 2784 ft | 6 kts | 129° |
| 2026-05-03 20:47 | -41.14806 | -71.16202 | 2784 ft | 3 kts | 114° |
| 2026-05-03 20:48 | -41.14810 | -71.16191 | 2784 ft | 0 kts | 115° |
| 2026-05-03 20:54 | -41.14811 | -71.16189 | 2784 ft | 1 kts | 115° |
| 2026-05-03 20:54 | -41.14840 | -71.16106 | 2784 ft | 11 kts | 114° |
| 2026-05-03 20:54 | -41.14873 | -71.16008 | 2784 ft | 13 kts | 114° |
| 2026-05-03 20:55 | -41.14920 | -71.15871 | 2784 ft | 17 kts | 114° |
| 2026-05-03 20:55 | -41.14975 | -71.15714 | 2784 ft | 21 kts | 114° |
| 2026-05-03 20:55 | -41.15036 | -71.15537 | 2784 ft | 21 kts | 114° |
| 2026-05-03 20:55 | -41.15097 | -71.15361 | 2784 ft | 20 kts | 114° |
| 2026-05-03 20:56 | -41.15157 | -71.15185 | 2784 ft | 20 kts | 114° |
| 2026-05-03 20:56 | -41.15217 | -71.15011 | 2784 ft | 20 kts | 114° |
| 2026-05-03 20:56 | -41.15277 | -71.14837 | 2784 ft | 20 kts | 114° |
| 2026-05-03 20:56 | -41.15337 | -71.14664 | 2784 ft | 20 kts | 114° |
| 2026-05-03 20:57 | -41.15389 | -71.14516 | 2784 ft | 13 kts | 116° |
| 2026-05-03 20:57 | -41.15451 | -71.14478 | 2784 ft | 4 kts | 196° |
| 2026-05-03 20:57 | -41.15454 | -71.14480 | 2784 ft | 0 kts | 198° |
| 2026-05-03 20:59 | -41.15462 | -71.14483 | 2784 ft | 1 kts | 199° |
| 2026-05-03 20:59 | -41.15480 | -71.14493 | 2784 ft | 5 kts | 204° |
| 2026-05-03 21:00 | -41.15520 | -71.14532 | 2784 ft | 7 kts | 243° |
| 2026-05-03 21:00 | -41.15523 | -71.14575 | 2784 ft | 7 kts | 280° |
| 2026-05-03 21:00 | -41.15482 | -71.14705 | 2784 ft | 29 kts | 294° |
| 2026-05-03 21:00 | -41.15297 | -71.15246 | 2784 ft | 96 kts | 295° |
| 2026-05-03 21:01 | -41.14936 | -71.16284 | 2784 ft | 150 kts | 294° |
| 2026-05-03 21:01 | -41.14484 | -71.17602 | 3277 ft | 156 kts | 294° |
| 2026-05-03 21:01 | -41.14020 | -71.18907 | 3945 ft | 159 kts | 295° |
| 2026-05-03 21:01 | -41.13549 | -71.20227 | 4428 ft | 162 kts | 294° |
| 2026-05-03 21:02 | -41.13066 | -71.21612 | 4834 ft | 171 kts | 294° |
| 2026-05-03 21:02 | -41.12579 | -71.23093 | 5269 ft | 179 kts | 293° |
| 2026-05-03 21:02 | -41.12078 | -71.24664 | 5642 ft | 191 kts | 294° |
| 2026-05-03 21:02 | -41.11520 | -71.26321 | 6028 ft | 206 kts | 295° |
| 2026-05-03 21:03 | -41.10887 | -71.28133 | 6528 ft | 221 kts | 295° |
| 2026-05-03 21:03 | -41.10282 | -71.29891 | 7632 ft | 210 kts | 294° |
| 2026-05-03 21:03 | -41.09685 | -71.31648 | 8490 ft | 210 kts | 293° |
| 2026-05-03 21:03 | -41.09103 | -71.33381 | 9316 ft | 211 kts | 293° |
| 2026-05-03 21:04 | -41.08501 | -71.35172 | 10169 ft | 213 kts | 293° |
| 2026-05-03 21:04 | -41.07734 | -71.36854 | 10904 ft | 222 kts | 310° |
| 2026-05-03 21:04 | -41.06385 | -71.37897 | 11740 ft | 239 kts | 335° |
| 2026-05-03 21:04 | -41.04689 | -71.38095 | 12626 ft | 254 kts | 351° |
| 2026-05-03 21:05 | -41.02886 | -71.37514 | 13288 ft | 287 kts | 15° |
| 2026-05-03 21:05 | -41.01323 | -71.35648 | 14085 ft | 321 kts | 48° |
| 2026-05-03 21:05 | -41.00539 | -71.32803 | 14869 ft | 343 kts | 79° |
| 2026-05-03 21:05 | -41.00557 | -71.29608 | 15541 ft | 354 kts | 93° |
| 2026-05-03 21:06 | -41.00729 | -71.26369 | 16239 ft | 359 kts | 86° |
| 2026-05-03 21:06 | -41.00413 | -71.23148 | 17003 ft | 352 kts | 67° |
| 2026-05-03 21:06 | -40.99469 | -71.20198 | 17650 ft | 349 kts | 52° |
| 2026-05-03 21:06 | -40.98191 | -71.17467 | 18325 ft | 350 kts | 48° |
| 2026-05-03 21:07 | -40.96843 | -71.14774 | 19087 ft | 351 kts | 49° |
| 2026-05-03 21:07 | -40.95543 | -71.12009 | 19736 ft | 358 kts | 51° |
| 2026-05-03 21:07 | -40.94281 | -71.09134 | 20242 ft | 368 kts | 53° |
| 2026-05-03 21:07 | -40.93009 | -71.06132 | 20632 ft | 381 kts | 54° |
| 2026-05-03 21:08 | -40.91717 | -71.03020 | 20954 ft | 396 kts | 55° |
| 2026-05-03 21:08 | -40.90375 | -70.99777 | 21303 ft | 409 kts | 55° |
| 2026-05-03 21:08 | -40.88990 | -70.96442 | 21642 ft | 422 kts | 55° |
| 2026-05-03 21:08 | -40.87553 | -70.93001 | 21914 ft | 437 kts | 54° |
| 2026-05-03 21:09 | -40.86046 | -70.89401 | 22243 ft | 451 kts | 56° |
| 2026-05-03 21:09 | -40.84502 | -70.85722 | 22547 ft | 464 kts | 56° |
| 2026-05-03 21:09 | -40.82923 | -70.81954 | 23048 ft | 471 kts | 56° |
| 2026-05-03 21:09 | -40.81345 | -70.78175 | 23729 ft | 473 kts | 55° |
| 2026-05-03 21:10 | -40.79734 | -70.74316 | 24336 ft | 477 kts | 55° |
| 2026-05-03 21:10 | -40.78124 | -70.70478 | 24954 ft | 481 kts | 55° |
| 2026-05-03 21:10 | -40.76503 | -70.66639 | 25483 ft | 486 kts | 54° |
| 2026-05-03 21:10 | -40.74786 | -70.62755 | 26157 ft | 485 kts | 52° |
| 2026-05-03 21:11 | -40.72856 | -70.59129 | 26753 ft | 483 kts | 45° |
| 2026-05-03 21:11 | -40.70687 | -70.55711 | 27289 ft | 483 kts | 41° |
| 2026-05-03 21:11 | -40.68419 | -70.52477 | 27813 ft | 485 kts | 39° |
| 2026-05-03 21:11 | -40.66051 | -70.49227 | 28432 ft | 486 kts | 38° |
| 2026-05-03 21:12 | -40.63667 | -70.45989 | 28724 ft | 495 kts | 38° |
| 2026-05-03 21:12 | -40.61251 | -70.42744 | 29395 ft | 494 kts | 38° |
| 2026-05-03 21:12 | -40.58946 | -70.39432 | 30441 ft | 488 kts | 41° |
| 2026-05-03 21:12 | -40.56782 | -70.35960 | 31073 ft | 491 kts | 45° |
| 2026-05-03 21:13 | -40.54689 | -70.32333 | 31635 ft | 492 kts | 46° |
| 2026-05-03 21:13 | -40.52645 | -70.28675 | 32233 ft | 492 kts | 46° |
| 2026-05-03 21:13 | -40.50628 | -70.25037 | 32854 ft | 490 kts | 46° |
| 2026-05-03 21:13 | -40.48615 | -70.21416 | 33416 ft | 489 kts | 46° |
| 2026-05-03 21:14 | -40.46617 | -70.17840 | 33866 ft | 490 kts | 46° |
| 2026-05-03 21:14 | -40.44579 | -70.14219 | 34196 ft | 494 kts | 46° |
| 2026-05-03 21:14 | -40.42508 | -70.10565 | 34621 ft | 493 kts | 46° |
| 2026-05-03 21:14 | -40.40478 | -70.07001 | 35077 ft | 491 kts | 45° |
| 2026-05-03 21:15 | -40.38430 | -70.03417 | 35500 ft | 490 kts | 45° |
| 2026-05-03 21:15 | -40.36364 | -69.99817 | 35933 ft | 488 kts | 45° |
| 2026-05-03 21:15 | -40.34327 | -69.96275 | 36359 ft | 487 kts | 45° |
| 2026-05-03 21:15 | -40.32275 | -69.92717 | 36784 ft | 488 kts | 46° |
| 2026-05-03 21:16 | -40.30216 | -69.89159 | 36981 ft | 493 kts | 46° |
| 2026-05-03 21:16 | -40.28136 | -69.85575 | 37360 ft | 494 kts | 46° |
| 2026-05-03 21:16 | -40.26061 | -69.81998 | 37926 ft | 491 kts | 45° |
| 2026-05-03 21:16 | -40.24020 | -69.78478 | 38511 ft | 488 kts | 46° |
| 2026-05-03 21:17 | -40.21949 | -69.74912 | 38866 ft | 488 kts | 45° |
| 2026-05-03 21:17 | -40.20573 | -69.72546 | 38855 ft | 492 kts | 46° |
| 2026-05-03 21:17 | -40.15738 | -69.64244 | 38864 ft | 488 kts | 45° |
| 2026-05-03 21:18 | -40.11632 | -69.57190 | 38870 ft | 487 kts | 46° |
| 2026-05-03 21:18 | -40.07499 | -69.50134 | 38859 ft | 492 kts | 46° |
| 2026-05-03 21:19 | -40.03341 | -69.43054 | 38902 ft | 492 kts | 45° |
| 2026-05-03 21:19 | -39.99182 | -69.35995 | 38877 ft | 489 kts | 46° |
| 2026-05-03 21:20 | -39.95016 | -69.28941 | 38879 ft | 491 kts | 45° |
| 2026-05-03 21:20 | -39.90856 | -69.21887 | 38871 ft | 489 kts | 45° |
| 2026-05-03 21:21 | -39.86720 | -69.14894 | 38887 ft | 490 kts | 45° |
| 2026-05-03 21:21 | -39.82551 | -69.07847 | 38875 ft | 493 kts | 45° |
| 2026-05-03 21:22 | -39.78347 | -69.00767 | 38880 ft | 492 kts | 45° |
| 2026-05-03 21:22 | -39.74168 | -68.93758 | 38871 ft | 492 kts | 45° |
| 2026-05-03 21:23 | -39.69952 | -68.86694 | 38867 ft | 492 kts | 45° |
| 2026-05-03 21:23 | -39.65763 | -68.79702 | 38866 ft | 495 kts | 45° |
| 2026-05-03 21:24 | -39.61516 | -68.72640 | 38863 ft | 494 kts | 45° |
| 2026-05-03 21:24 | -39.57292 | -68.65612 | 38868 ft | 495 kts | 45° |
| 2026-05-03 21:25 | -39.53037 | -68.58549 | 38871 ft | 497 kts | 45° |
| 2026-05-03 21:25 | -39.48774 | -68.51496 | 38876 ft | 496 kts | 46° |
| 2026-05-03 21:26 | -39.44489 | -68.44408 | 38882 ft | 498 kts | 46° |
| 2026-05-03 21:26 | -39.40214 | -68.37376 | 38871 ft | 496 kts | 46° |
| 2026-05-03 21:27 | -39.35972 | -68.30393 | 38869 ft | 495 kts | 45° |
| 2026-05-03 21:27 | -39.31662 | -68.23292 | 38865 ft | 500 kts | 45° |
| 2026-05-03 21:28 | -39.27394 | -68.16316 | 38852 ft | 496 kts | 45° |
| 2026-05-03 21:28 | -39.23082 | -68.09278 | 38859 ft | 499 kts | 45° |
| 2026-05-03 21:29 | -39.18764 | -68.02254 | 38858 ft | 500 kts | 45° |
| 2026-05-03 21:29 | -39.14417 | -67.95181 | 38862 ft | 500 kts | 45° |
| 2026-05-03 21:30 | -39.10132 | -67.88202 | 38856 ft | 498 kts | 45° |
| 2026-05-03 21:30 | -39.05789 | -67.81195 | 38864 ft | 502 kts | 45° |
| 2026-05-03 21:31 | -39.01426 | -67.74149 | 38862 ft | 500 kts | 45° |
| 2026-05-03 21:31 | -38.97103 | -67.67163 | 38854 ft | 500 kts | 46° |
| 2026-05-03 21:32 | -38.92766 | -67.60144 | 38860 ft | 501 kts | 45° |
| 2026-05-03 21:32 | -38.88406 | -67.53138 | 38860 ft | 501 kts | 46° |
| 2026-05-03 21:33 | -38.84062 | -67.46198 | 38866 ft | 500 kts | 45° |
| 2026-05-03 21:33 | -38.79678 | -67.39215 | 38862 ft | 500 kts | 46° |
| 2026-05-03 21:34 | -38.75338 | -67.32291 | 38867 ft | 500 kts | 45° |
| 2026-05-03 21:34 | -38.70976 | -67.25340 | 38867 ft | 500 kts | 45° |
| 2026-05-03 21:35 | -38.66598 | -67.18376 | 38869 ft | 500 kts | 45° |
| 2026-05-03 21:35 | -38.62224 | -67.11435 | 38872 ft | 498 kts | 45° |
| 2026-05-03 21:36 | -38.57881 | -67.04563 | 38870 ft | 500 kts | 45° |
| 2026-05-03 21:36 | -38.53493 | -66.97637 | 38874 ft | 499 kts | 45° |
| 2026-05-03 21:37 | -38.49120 | -66.90745 | 38878 ft | 500 kts | 45° |
| 2026-05-03 21:37 | -38.44699 | -66.83794 | 38878 ft | 498 kts | 45° |
| 2026-05-03 21:38 | -38.40318 | -66.76920 | 38883 ft | 501 kts | 46° |
| 2026-05-03 21:38 | -38.35947 | -66.70011 | 38878 ft | 499 kts | 47° |
| 2026-05-03 21:39 | -38.32033 | -66.62620 | 38886 ft | 506 kts | 55° |
| 2026-05-03 21:39 | -38.28566 | -66.54773 | 38885 ft | 507 kts | 59° |
| 2026-05-03 21:40 | -38.25290 | -66.46807 | 38887 ft | 508 kts | 59° |
| 2026-05-03 21:40 | -38.22026 | -66.38876 | 38889 ft | 507 kts | 59° |
| 2026-05-03 21:41 | -38.18673 | -66.30903 | 38890 ft | 507 kts | 58° |
| 2026-05-03 21:41 | -38.15322 | -66.23025 | 38891 ft | 508 kts | 58° |
| 2026-05-03 21:42 | -38.11948 | -66.15120 | 38892 ft | 507 kts | 58° |
| 2026-05-03 21:42 | -38.08579 | -66.07239 | 38893 ft | 507 kts | 59° |
| 2026-05-03 21:43 | -38.05194 | -65.99287 | 38893 ft | 508 kts | 58° |
| 2026-05-03 21:43 | -38.01825 | -65.91446 | 38900 ft | 508 kts | 58° |
| 2026-05-03 21:44 | -37.98412 | -65.83554 | 38898 ft | 508 kts | 59° |
| 2026-05-03 21:44 | -37.95026 | -65.75706 | 38906 ft | 507 kts | 58° |
| 2026-05-03 21:45 | -37.91645 | -65.67878 | 38910 ft | 506 kts | 58° |
| 2026-05-03 21:45 | -37.88250 | -65.60089 | 38911 ft | 506 kts | 59° |
| 2026-05-03 21:46 | -37.84846 | -65.52276 | 38908 ft | 507 kts | 59° |
| 2026-05-03 21:46 | -37.81448 | -65.44465 | 38911 ft | 504 kts | 59° |
| 2026-05-03 21:47 | -37.78050 | -65.36674 | 38919 ft | 505 kts | 59° |
| 2026-05-03 21:47 | -37.74643 | -65.28887 | 38923 ft | 504 kts | 59° |
| 2026-05-03 21:48 | -37.71220 | -65.21086 | 38921 ft | 505 kts | 58° |
| 2026-05-03 21:48 | -37.67822 | -65.13370 | 38925 ft | 504 kts | 59° |
| 2026-05-03 21:49 | -37.64408 | -65.05643 | 38927 ft | 504 kts | 59° |
| 2026-05-03 21:49 | -37.60977 | -64.97875 | 38928 ft | 504 kts | 59° |
| 2026-05-03 21:50 | -37.57589 | -64.90211 | 38932 ft | 503 kts | 59° |
| 2026-05-03 21:50 | -37.54168 | -64.82497 | 38940 ft | 503 kts | 59° |
| 2026-05-03 21:51 | -37.50740 | -64.74797 | 38938 ft | 503 kts | 59° |
| 2026-05-03 21:51 | -37.47302 | -64.67102 | 38953 ft | 502 kts | 59° |
| 2026-05-03 21:52 | -37.43862 | -64.59426 | 38954 ft | 503 kts | 58° |
| 2026-05-03 21:52 | -37.40446 | -64.51797 | 38950 ft | 502 kts | 59° |
| 2026-05-03 21:53 | -37.36991 | -64.44102 | 38956 ft | 502 kts | 59° |
| 2026-05-03 21:53 | -37.33552 | -64.36469 | 38954 ft | 502 kts | 59° |
| 2026-05-03 21:54 | -37.30101 | -64.28872 | 38967 ft | 500 kts | 58° |
| 2026-05-03 21:54 | -37.26625 | -64.21287 | 38974 ft | 500 kts | 58° |
| 2026-05-03 21:55 | -37.23141 | -64.13715 | 38977 ft | 501 kts | 58° |
| 2026-05-03 21:55 | -37.19655 | -64.06132 | 38972 ft | 499 kts | 58° |
| 2026-05-03 21:56 | -37.16196 | -63.98608 | 38984 ft | 500 kts | 58° |
| 2026-05-03 21:56 | -37.12707 | -63.91054 | 38979 ft | 499 kts | 58° |
| 2026-05-03 21:57 | -37.09215 | -63.83520 | 38990 ft | 498 kts | 58° |
| 2026-05-03 21:57 | -37.05732 | -63.76014 | 38994 ft | 500 kts | 58° |
| 2026-05-03 21:58 | -37.02227 | -63.68480 | 39001 ft | 498 kts | 58° |
| 2026-05-03 21:58 | -36.98757 | -63.61044 | 38996 ft | 498 kts | 58° |
| 2026-05-03 21:59 | -36.95238 | -63.53542 | 39006 ft | 498 kts | 58° |
| 2026-05-03 21:59 | -36.91701 | -63.46000 | 39014 ft | 508 kts | 58° |
| 2026-05-03 22:00 | -36.88091 | -63.38306 | 39010 ft | 510 kts | 59° |
| 2026-05-03 22:00 | -36.84515 | -63.30699 | 39016 ft | 506 kts | 58° |
| 2026-05-03 22:01 | -36.80939 | -63.23113 | 39022 ft | 508 kts | 58° |
| 2026-05-03 22:01 | -36.77368 | -63.15554 | 39028 ft | 508 kts | 58° |
| 2026-05-03 22:02 | -36.73757 | -63.07923 | 39025 ft | 506 kts | 58° |
| 2026-05-03 22:02 | -36.70190 | -63.00408 | 39028 ft | 506 kts | 58° |
| 2026-05-03 22:03 | -36.66592 | -62.92844 | 39033 ft | 505 kts | 58° |
| 2026-05-03 22:03 | -36.62995 | -62.85305 | 39038 ft | 505 kts | 58° |
| 2026-05-03 22:04 | -36.59413 | -62.77802 | 39038 ft | 504 kts | 58° |
| 2026-05-03 22:04 | -36.55821 | -62.70296 | 39044 ft | 504 kts | 58° |
| 2026-05-03 22:05 | -36.52213 | -62.62784 | 39042 ft | 505 kts | 58° |
| 2026-05-03 22:05 | -36.48596 | -62.55268 | 39046 ft | 503 kts | 58° |
| 2026-05-03 22:06 | -36.44981 | -62.47774 | 39047 ft | 504 kts | 58° |
| 2026-05-03 22:06 | -36.41362 | -62.40293 | 39050 ft | 503 kts | 59° |
| 2026-05-03 22:07 | -36.37758 | -62.32852 | 39052 ft | 503 kts | 58° |
| 2026-05-03 22:07 | -36.34150 | -62.25400 | 39049 ft | 503 kts | 58° |
| 2026-05-03 22:08 | -36.30512 | -62.17900 | 39054 ft | 502 kts | 58° |
| 2026-05-03 22:08 | -36.26889 | -62.10484 | 39061 ft | 502 kts | 58° |
| 2026-05-03 22:09 | -36.23242 | -62.03040 | 39061 ft | 502 kts | 58° |
| 2026-05-03 22:10 | -36.17777 | -61.91899 | 39059 ft | 502 kts | 58° |
| 2026-05-03 22:10 | -36.14150 | -61.84526 | 39055 ft | 501 kts | 58° |
| 2026-05-03 22:11 | -36.10506 | -61.77129 | 39065 ft | 503 kts | 58° |
| 2026-05-03 22:11 | -36.06876 | -61.69759 | 39073 ft | 501 kts | 58° |
| 2026-05-03 22:12 | -36.03228 | -61.62350 | 39082 ft | 502 kts | 58° |
| 2026-05-03 22:12 | -35.99581 | -61.54963 | 39083 ft | 502 kts | 58° |
| 2026-05-03 22:13 | -35.95935 | -61.47600 | 39090 ft | 503 kts | 57° |
| 2026-05-03 22:13 | -35.92289 | -61.40260 | 39080 ft | 503 kts | 58° |
| 2026-05-03 22:14 | -35.88625 | -61.32898 | 39088 ft | 503 kts | 57° |
| 2026-05-03 22:14 | -35.84954 | -61.25512 | 39096 ft | 503 kts | 57° |
| 2026-05-03 22:15 | -35.81321 | -61.18156 | 39104 ft | 504 kts | 57° |
| 2026-05-03 22:15 | -35.77677 | -61.10792 | 39095 ft | 502 kts | 57° |
| 2026-05-03 22:16 | -35.74000 | -61.03384 | 39111 ft | 506 kts | 57° |
| 2026-05-03 22:16 | -35.70322 | -60.95983 | 39094 ft | 504 kts | 57° |
| 2026-05-03 22:17 | -35.66646 | -60.88605 | 39174 ft | 504 kts | 57° |
| 2026-05-03 22:17 | -35.62984 | -60.81288 | 39110 ft | 502 kts | 57° |
| 2026-05-03 22:18 | -35.61366 | -60.78056 | 39110 ft | 502 kts | 57° |
| 2026-05-03 22:18 | -35.57673 | -60.70683 | 39118 ft | 504 kts | 56° |
| 2026-05-03 22:19 | -35.53992 | -60.63348 | 39110 ft | 502 kts | 57° |
| 2026-05-03 22:19 | -35.50319 | -60.56039 | 38522 ft | 504 kts | 57° |
| 2026-05-03 22:19 | -35.48475 | -60.52386 | 37746 ft | 498 kts | 57° |
| 2026-05-03 22:20 | -35.46675 | -60.48826 | 36908 ft | 492 kts | 57° |
| 2026-05-03 22:20 | -35.44873 | -60.45266 | 36118 ft | 486 kts | 57° |
| 2026-05-03 22:20 | -35.43088 | -60.41742 | 35319 ft | 480 kts | 57° |
| 2026-05-03 22:20 | -35.41344 | -60.38300 | 34537 ft | 473 kts | 57° |
| 2026-05-03 22:21 | -35.39627 | -60.34912 | 33852 ft | 466 kts | 56° |
| 2026-05-03 22:21 | -35.37935 | -60.31574 | 33172 ft | 458 kts | 56° |
| 2026-05-03 22:21 | -35.36264 | -60.28281 | 32492 ft | 451 kts | 56° |
| 2026-05-03 22:21 | -35.34624 | -60.25055 | 31827 ft | 444 kts | 57° |
| 2026-05-03 22:22 | -35.33016 | -60.21893 | 31170 ft | 438 kts | 57° |
| 2026-05-03 22:22 | -35.31409 | -60.18738 | 30505 ft | 432 kts | 57° |
| 2026-05-03 22:22 | -35.29840 | -60.15663 | 29848 ft | 426 kts | 57° |
| 2026-05-03 22:22 | -35.28272 | -60.12591 | 29185 ft | 422 kts | 57° |
| 2026-05-03 22:23 | -35.26734 | -60.09582 | 28528 ft | 417 kts | 56° |
| 2026-05-03 22:23 | -35.25203 | -60.06585 | 27870 ft | 414 kts | 57° |
| 2026-05-03 22:23 | -35.23689 | -60.03627 | 27213 ft | 410 kts | 57° |
| 2026-05-03 22:23 | -35.22191 | -60.00699 | 26564 ft | 406 kts | 57° |
| 2026-05-03 22:24 | -35.20689 | -59.97766 | 25905 ft | 401 kts | 56° |
| 2026-05-03 22:24 | -35.19215 | -59.94890 | 25252 ft | 398 kts | 56° |
| 2026-05-03 22:24 | -35.17763 | -59.92060 | 24605 ft | 393 kts | 56° |
| 2026-05-03 22:24 | -35.16308 | -59.89226 | 23970 ft | 389 kts | 56° |
| 2026-05-03 22:25 | -35.14866 | -59.86420 | 23335 ft | 386 kts | 56° |
| 2026-05-03 22:25 | -35.13444 | -59.83654 | 22712 ft | 382 kts | 56° |
| 2026-05-03 22:25 | -35.12024 | -59.80895 | 22081 ft | 378 kts | 56° |
| 2026-05-03 22:25 | -35.10642 | -59.78212 | 21466 ft | 374 kts | 56° |
| 2026-05-03 22:26 | -35.09253 | -59.75520 | 20848 ft | 371 kts | 56° |
| 2026-05-03 22:26 | -35.07889 | -59.72877 | 20229 ft | 367 kts | 56° |
| 2026-05-03 22:26 | -35.06526 | -59.70240 | 19611 ft | 363 kts | 56° |
| 2026-05-03 22:26 | -35.05197 | -59.67668 | 19006 ft | 360 kts | 56° |
| 2026-05-03 22:27 | -35.03844 | -59.65052 | 18383 ft | 356 kts | 56° |
| 2026-05-03 22:27 | -35.02533 | -59.62519 | 17772 ft | 353 kts | 56° |
| 2026-05-03 22:27 | -35.01212 | -59.60034 | 17174 ft | 349 kts | 55° |
| 2026-05-03 22:27 | -34.99859 | -59.57563 | 16564 ft | 346 kts | 54° |
| 2026-05-03 22:28 | -34.98520 | -59.55148 | 15952 ft | 342 kts | 54° |
| 2026-05-03 22:28 | -34.97205 | -59.52777 | 15357 ft | 339 kts | 54° |
| 2026-05-03 22:28 | -34.95885 | -59.50392 | 14815 ft | 333 kts | 54° |
| 2026-05-03 22:28 | -34.94613 | -59.48086 | 14281 ft | 328 kts | 55° |
| 2026-05-03 22:29 | -34.93345 | -59.45783 | 13748 ft | 323 kts | 55° |
| 2026-05-03 22:29 | -34.92100 | -59.43521 | 13214 ft | 319 kts | 54° |
| 2026-05-03 22:29 | -34.90874 | -59.41295 | 12683 ft | 314 kts | 54° |
| 2026-05-03 22:29 | -34.89668 | -59.39107 | 12158 ft | 310 kts | 54° |
| 2026-05-03 22:30 | -34.88456 | -59.36908 | 11620 ft | 306 kts | 54° |
| 2026-05-03 22:30 | -34.87273 | -59.34764 | 11218 ft | 297 kts | 53° |
| 2026-05-03 22:30 | -34.86145 | -59.32719 | 11161 ft | 288 kts | 53° |
| 2026-05-03 22:30 | -34.85003 | -59.30654 | 11046 ft | 300 kts | 53° |
| 2026-05-03 22:31 | -34.83813 | -59.28512 | 10689 ft | 304 kts | 53° |
| 2026-05-03 22:31 | -34.82643 | -59.26394 | 10307 ft | 295 kts | 52° |
| 2026-05-03 22:31 | -34.81507 | -59.24334 | 9940 ft | 289 kts | 52° |
| 2026-05-03 22:31 | -34.80398 | -59.22329 | 9574 ft | 287 kts | 52° |
| 2026-05-03 22:32 | -34.79280 | -59.20314 | 9200 ft | 285 kts | 52° |
| 2026-05-03 22:32 | -34.78177 | -59.18327 | 8836 ft | 283 kts | 52° |
| 2026-05-03 22:32 | -34.77078 | -59.16349 | 8463 ft | 281 kts | 52° |
| 2026-05-03 22:32 | -34.75980 | -59.14370 | 8085 ft | 278 kts | 52° |
| 2026-05-03 22:33 | -34.74894 | -59.12414 | 7716 ft | 276 kts | 52° |
| 2026-05-03 22:33 | -34.73816 | -59.10475 | 7341 ft | 274 kts | 52° |
| 2026-05-03 22:33 | -34.72766 | -59.08585 | 7187 ft | 268 kts | 52° |
| 2026-05-03 22:33 | -34.71702 | -59.06675 | 7174 ft | 275 kts | 52° |
| 2026-05-03 22:34 | -34.70637 | -59.04765 | 7170 ft | 272 kts | 52° |
| 2026-05-03 22:34 | -34.69568 | -59.02846 | 7179 ft | 272 kts | 52° |
| 2026-05-03 22:34 | -34.68506 | -59.00939 | 7187 ft | 272 kts | 52° |
| 2026-05-03 22:34 | -34.67444 | -58.99035 | 7186 ft | 272 kts | 52° |
| 2026-05-03 22:35 | -34.66386 | -58.97136 | 7192 ft | 271 kts | 52° |
| 2026-05-03 22:35 | -34.65319 | -58.95223 | 7196 ft | 271 kts | 52° |
| 2026-05-03 22:35 | -34.64254 | -58.93318 | 7199 ft | 271 kts | 52° |
| 2026-05-03 22:35 | -34.63206 | -58.91440 | 7198 ft | 270 kts | 52° |
| 2026-05-03 22:36 | -34.62139 | -58.89533 | 7198 ft | 270 kts | 52° |
| 2026-05-03 22:36 | -34.61078 | -58.87638 | 7199 ft | 271 kts | 52° |
| 2026-05-03 22:36 | -34.60016 | -58.85743 | 7198 ft | 270 kts | 52° |
| 2026-05-03 22:36 | -34.58981 | -58.83851 | 7198 ft | 270 kts | 57° |
| 2026-05-03 22:37 | -34.58415 | -58.81704 | 7182 ft | 264 kts | 86° |
| 2026-05-03 22:37 | -34.58692 | -58.79513 | 7008 ft | 262 kts | 104° |
| 2026-05-03 22:37 | -34.59240 | -58.77417 | 6809 ft | 257 kts | 107° |
| 2026-05-03 22:37 | -34.59772 | -58.75376 | 6625 ft | 256 kts | 105° |
| 2026-05-03 22:38 | -34.60276 | -58.73271 | 6437 ft | 255 kts | 104° |
| 2026-05-03 22:38 | -34.60743 | -58.71194 | 6247 ft | 254 kts | 103° |
| 2026-05-03 22:38 | -34.61197 | -58.69130 | 6059 ft | 253 kts | 103° |
| 2026-05-03 22:38 | -34.61653 | -58.67058 | 5870 ft | 252 kts | 103° |
| 2026-05-03 22:39 | -34.62103 | -58.65017 | 5683 ft | 250 kts | 103° |
| 2026-05-03 22:39 | -34.62562 | -58.62944 | 5492 ft | 250 kts | 103° |
| 2026-05-03 22:39 | -34.63013 | -58.60905 | 5305 ft | 249 kts | 103° |
| 2026-05-03 22:39 | -34.63457 | -58.58889 | 5118 ft | 248 kts | 103° |
| 2026-05-03 22:40 | -34.63907 | -58.56850 | 4927 ft | 246 kts | 103° |
| 2026-05-03 22:40 | -34.64349 | -58.54841 | 4739 ft | 245 kts | 102° |
| 2026-05-03 22:40 | -34.64784 | -58.52861 | 4554 ft | 245 kts | 102° |
| 2026-05-03 22:40 | -34.65228 | -58.50843 | 4362 ft | 243 kts | 102° |
| 2026-05-03 22:41 | -34.65660 | -58.48872 | 4178 ft | 243 kts | 102° |
| 2026-05-03 22:41 | -34.66097 | -58.46886 | 3989 ft | 242 kts | 102° |
| 2026-05-03 22:41 | -34.66533 | -58.44900 | 3799 ft | 241 kts | 102° |
| 2026-05-03 22:41 | -34.66961 | -58.42948 | 3611 ft | 240 kts | 102° |
| 2026-05-03 22:42 | -34.67391 | -58.40984 | 3422 ft | 239 kts | 102° |
| 2026-05-03 22:42 | -34.67813 | -58.39053 | 3235 ft | 237 kts | 102° |
| 2026-05-03 22:42 | -34.68241 | -58.37091 | 3120 ft | 239 kts | 102° |
| 2026-05-03 22:42 | -34.68666 | -58.35149 | 3115 ft | 238 kts | 102° |
| 2026-05-03 22:43 | -34.69086 | -58.33221 | 3113 ft | 236 kts | 101° |
| 2026-05-03 22:43 | -34.69512 | -58.31266 | 3117 ft | 237 kts | 101° |
| 2026-05-03 22:43 | -34.69929 | -58.29340 | 3092 ft | 234 kts | 100° |
| 2026-05-03 22:43 | -34.70168 | -58.27423 | 3112 ft | 223 kts | 84° |
| 2026-05-03 22:44 | -34.69765 | -58.25697 | 3119 ft | 210 kts | 50° |
| 2026-05-03 22:44 | -34.68736 | -58.24537 | 3075 ft | 194 kts | 28° |
| 2026-05-03 22:44 | -34.67531 | -58.23875 | 2843 ft | 183 kts | 12° |
| 2026-05-03 22:44 | -34.66316 | -58.23763 | 2658 ft | 173 kts | 348° |
| 2026-05-03 22:45 | -34.65286 | -58.24429 | 2553 ft | 168 kts | 316° |
| 2026-05-03 22:45 | -34.64656 | -58.25653 | 2241 ft | 174 kts | 296° |
| 2026-05-03 22:45 | -34.64129 | -58.26919 | 2104 ft | 163 kts | 308° |
| 2026-05-03 22:45 | -34.63501 | -58.27997 | 2102 ft | 148 kts | 309° |
| 2026-05-03 22:46 | -34.62928 | -58.28997 | 2072 ft | 142 kts | 308° |
| 2026-05-03 22:46 | -34.62369 | -58.29997 | 2050 ft | 143 kts | 308° |
| 2026-05-03 22:46 | -34.61827 | -58.30974 | 1958 ft | 139 kts | 308° |
| 2026-05-03 22:46 | -34.61305 | -58.31915 | 1821 ft | 131 kts | 309° |
| 2026-05-03 22:47 | -34.60793 | -58.32834 | 1731 ft | 134 kts | 309° |
| 2026-05-03 22:47 | -34.60266 | -58.33776 | 1515 ft | 134 kts | 308° |
| 2026-05-03 22:47 | -34.59760 | -58.34688 | 1349 ft | 125 kts | 308° |
| 2026-05-03 22:47 | -34.59261 | -58.35585 | 1161 ft | 127 kts | 308° |
| 2026-05-03 22:48 | -34.58763 | -58.36475 | 987 ft | 130 kts | 308° |
| 2026-05-03 22:48 | -34.58243 | -58.37408 | 834 ft | 132 kts | 307° |
| 2026-05-03 22:48 | -34.57723 | -58.38338 | 587 ft | 132 kts | 308° |
| 2026-05-03 22:48 | -34.57217 | -58.39251 | 345 ft | 132 kts | 307° |
| 2026-05-03 22:49 | -34.56714 | -58.40161 | 178 ft | 127 kts | 306° |
| 2026-05-03 22:49 | -34.56226 | -58.41043 | 28 ft | 115 kts | 307° |
| 2026-05-03 22:49 | -34.55929 | -58.41573 | 27 ft | 36 kts | 304° |
| 2026-05-03 22:49 | -34.55859 | -58.41701 | 27 ft | 15 kts | 304° |
| 2026-05-03 22:50 | -34.55782 | -58.41830 | 27 ft | 19 kts | 305° |
| 2026-05-03 22:50 | -34.55715 | -58.41909 | 27 ft | 12 kts | 355° |
| 2026-05-03 22:50 | -34.55674 | -58.41887 | 27 ft | 4 kts | 61° |
| 2026-05-03 22:50 | -34.55679 | -58.41848 | 27 ft | 4 kts | 118° |
| 2026-05-03 22:51 | -34.55697 | -58.41813 | 27 ft | 4 kts | 122° |
| 2026-05-03 22:51 | -34.55714 | -58.41779 | 27 ft | 4 kts | 122° |
| 2026-05-03 22:51 | -34.55732 | -58.41745 | 27 ft | 5 kts | 120° |
| 2026-05-03 22:51 | -34.55759 | -58.41684 | 27 ft | 8 kts | 116° |
| 2026-05-03 22:52 | -34.55785 | -58.41620 | 27 ft | 10 kts | 116° |
| 2026-05-03 22:52 | -34.55828 | -58.41520 | 27 ft | 14 kts | 117° |
| 2026-05-03 22:52 | -34.55868 | -58.41423 | 27 ft | 12 kts | 117° |
| 2026-05-03 22:52 | -34.55897 | -58.41351 | 27 ft | 7 kts | 107° |
| 2026-05-03 22:53 | -34.55893 | -58.41312 | 27 ft | 4 kts | 56° |
| 2026-05-03 22:53 | -34.55851 | -58.41286 | 27 ft | 7 kts | 354° |
| 2026-05-03 22:53 | -34.55812 | -58.41328 | 27 ft | 7 kts | 304° |
| 2026-05-03 22:53 | -34.55782 | -58.41378 | 27 ft | 5 kts | 320° |
| 2026-05-03 22:54 | -34.55753 | -58.41368 | 27 ft | 4 kts | 37° |
| 2026-05-03 22:54 | -34.55740 | -58.41358 | 27 ft | 0 kts | 32° |